createdAt,value
2017-12-09T00:01:44.102Z,13.93
2017-12-09T00:04:10.153Z,14.43
2017-12-09T00:06:36.207Z,14.00
2017-12-09T00:09:03.024Z,15.27
2017-12-09T00:11:29.061Z,15.15
2017-12-09T00:13:55.530Z,15.63
2017-12-09T00:16:21.602Z,14.68
2017-12-09T00:18:47.653Z,14.38
2017-12-09T00:21:13.785Z,15.80
2017-12-09T00:23:39.855Z,16.05
2017-12-09T00:26:07.378Z,14.52
2017-12-09T00:28:34.333Z,16.23
2017-12-09T00:31:01.133Z,15.40
2017-12-09T00:33:28.204Z,16.80
2017-12-09T00:35:54.321Z,16.75
2017-12-09T00:38:20.334Z,15.10
2017-12-09T00:40:46.462Z,14.98
2017-12-09T00:43:13.256Z,15.32
2017-12-09T00:45:39.310Z,16.45
2017-12-09T00:48:05.389Z,14.65
2017-12-09T00:50:31.454Z,13.85
2017-12-09T00:52:58.146Z,12.80
2017-12-09T00:55:25.398Z,11.45
2017-12-09T00:57:51.439Z,12.40
2017-12-09T01:00:17.504Z,10.95
2017-12-09T01:02:43.542Z,12.90
2017-12-09T01:05:09.697Z,11.68
2017-12-09T01:07:36.510Z,11.23
2017-12-09T01:10:02.581Z,12.60
2017-12-09T01:12:30.401Z,11.27
2017-12-09T01:14:56.499Z,13.45
2017-12-09T01:17:35.657Z,12.70
2017-12-09T01:20:02.490Z,14.68
2017-12-09T01:22:28.529Z,12.55
2017-12-09T01:24:54.588Z,12.13
2017-12-09T01:27:22.615Z,12.90
2017-12-09T01:29:48.684Z,13.02
2017-12-09T01:32:14.756Z,12.57
2017-12-09T01:34:41.552Z,13.52
2017-12-09T01:37:07.623Z,13.80
2017-12-09T01:39:33.670Z,16.25
2017-12-09T01:42:00.457Z,18.00
2017-12-09T01:44:26.543Z,16.33
2017-12-09T01:46:54.011Z,16.75
2017-12-09T01:49:20.820Z,16.90
2017-12-09T01:51:46.899Z,18.20
2017-12-09T01:54:12.949Z,19.40
2017-12-09T01:56:39.002Z,17.40
2017-12-09T01:59:06.092Z,18.08
2017-12-09T02:01:32.196Z,20.88
2017-12-09T02:03:58.269Z,18.65
2017-12-09T02:06:24.345Z,18.62
2017-12-09T02:08:50.417Z,18.90
2017-12-09T02:11:17.229Z,15.65
2017-12-09T02:13:45.390Z,17.65
2017-12-09T02:16:11.463Z,18.92
2017-12-09T02:18:37.570Z,18.00
2017-12-09T02:21:03.618Z,17.05
2017-12-09T02:23:29.662Z,16.17
2017-12-09T02:25:55.705Z,14.23
2017-12-09T02:28:21.805Z,14.75
2017-12-09T02:30:47.861Z,15.75
2017-12-09T02:33:13.954Z,15.20
2017-12-09T02:35:40.006Z,13.85
2017-12-09T02:38:06.824Z,13.95
2017-12-09T02:40:32.885Z,13.25
2017-12-09T02:42:59.689Z,15.27
2017-12-09T02:45:25.750Z,14.35
2017-12-09T02:47:51.793Z,13.55
2017-12-09T02:50:17.846Z,12.10
2017-12-09T02:52:44.650Z,14.43
2017-12-09T02:55:10.778Z,13.05
2017-12-09T02:57:36.794Z,13.73
2017-12-09T03:00:02.866Z,13.62
2017-12-09T03:02:29.670Z,12.13
2017-12-09T03:04:56.517Z,11.98
2017-12-09T03:07:23.326Z,10.77
2017-12-09T03:09:49.379Z,10.77
2017-12-09T03:12:15.442Z,11.15
2017-12-09T03:14:41.495Z,10.60
2017-12-09T03:17:08.280Z,10.57
2017-12-09T03:19:34.317Z,9.05
2017-12-09T03:22:00.390Z,10.02
2017-12-09T03:24:26.446Z,9.25
2017-12-09T03:26:52.506Z,8.75
2017-12-09T03:29:19.337Z,9.82
2017-12-09T03:31:45.373Z,8.55
2017-12-09T03:34:11.466Z,10.18
2017-12-09T03:36:37.661Z,8.95
2017-12-09T03:39:04.514Z,8.35
2017-12-09T03:41:30.554Z,6.95
2017-12-09T03:43:57.329Z,8.23
2017-12-09T03:46:24.120Z,7.35
2017-12-09T03:48:50.158Z,7.20
2017-12-09T03:51:16.981Z,7.55
2017-12-09T03:53:43.030Z,7.40
2017-12-09T03:56:09.073Z,7.40
2017-12-09T03:58:35.114Z,6.78
2017-12-09T04:01:01.158Z,7.20
2017-12-09T04:03:29.686Z,6.90
2017-12-09T04:05:56.472Z,6.25
2017-12-09T04:08:22.589Z,7.70
2017-12-09T04:10:49.386Z,6.28
2017-12-09T04:13:15.442Z,6.15
2017-12-09T04:15:41.560Z,6.70
2017-12-09T04:18:07.586Z,5.97
2017-12-09T04:20:33.833Z,6.62
2017-12-09T04:22:59.910Z,6.45
2017-12-09T04:25:26.249Z,6.45
2017-12-09T04:27:52.409Z,5.80
2017-12-09T04:30:19.218Z,5.53
2017-12-09T04:32:45.273Z,5.40
2017-12-09T04:35:11.334Z,5.45
2017-12-09T04:37:37.603Z,5.72
2017-12-09T04:40:03.674Z,5.82
2017-12-09T04:42:29.738Z,6.03
2017-12-09T04:44:55.790Z,6.65
2017-12-09T04:47:22.575Z,6.03
2017-12-09T04:49:48.690Z,6.55
2017-12-09T04:52:14.828Z,5.40
2017-12-09T04:54:40.870Z,5.78
2017-12-09T04:57:07.658Z,7.45
2017-12-09T04:59:33.716Z,5.47
2017-12-09T05:01:59.869Z,6.12
2017-12-09T05:04:25.930Z,6.25
2017-12-09T05:06:51.978Z,7.07
2017-12-09T05:09:18.774Z,6.00
2017-12-09T05:11:44.818Z,6.37
2017-12-09T05:14:10.861Z,5.00
2017-12-09T05:16:36.899Z,5.70
2017-12-09T05:19:02.946Z,6.53
2017-12-09T05:21:28.984Z,5.75
2017-12-09T05:23:55.025Z,5.72
2017-12-09T05:26:21.257Z,6.62
2017-12-09T05:28:47.524Z,6.20
2017-12-09T05:31:13.763Z,5.43
2017-12-09T05:33:39.990Z,5.62
2017-12-09T05:36:06.213Z,5.68
2017-12-09T05:38:32.494Z,5.85
2017-12-09T05:40:58.722Z,5.60
2017-12-09T05:43:25.017Z,6.15
2017-12-09T05:45:51.273Z,6.15
2017-12-09T05:48:17.625Z,5.95
2017-12-09T05:50:44.093Z,5.68
2017-12-09T05:53:10.321Z,7.28
2017-12-09T05:55:36.590Z,5.80
2017-12-09T05:58:04.754Z,5.10
2017-12-09T06:00:30.990Z,5.20
2017-12-09T06:02:57.217Z,7.15
2017-12-09T06:05:23.526Z,5.60
2017-12-09T06:07:50.510Z,6.25
2017-12-09T06:10:16.737Z,5.62
2017-12-09T06:12:43.016Z,5.70
2017-12-09T06:15:09.313Z,6.20
2017-12-09T06:17:36.328Z,6.40
2017-12-09T06:20:02.573Z,6.43
2017-12-09T06:22:28.811Z,6.37
2017-12-09T06:24:55.050Z,6.68
2017-12-09T06:27:21.294Z,5.95
2017-12-09T06:29:49.958Z,6.12
2017-12-09T06:32:16.258Z,5.65
2017-12-09T06:34:43.250Z,6.40
2017-12-09T06:37:10.220Z,6.53
2017-12-09T06:39:36.433Z,7.30
2017-12-09T06:42:03.921Z,6.62
2017-12-09T06:44:30.150Z,6.68
2017-12-09T06:46:56.381Z,9.57
2017-12-09T06:49:22.614Z,6.03
2017-12-09T06:51:48.833Z,7.32
2017-12-09T06:54:15.084Z,8.15
2017-12-09T06:56:41.345Z,8.32
2017-12-09T06:59:08.397Z,8.75
2017-12-09T07:01:34.652Z,9.18
2017-12-09T07:04:01.616Z,10.32
2017-12-09T07:06:27.921Z,8.80
2017-12-09T07:08:54.215Z,10.23
2017-12-09T07:11:21.411Z,8.80
2017-12-09T07:13:47.677Z,10.77
2017-12-09T07:16:14.503Z,10.18
2017-12-09T07:18:40.770Z,11.38
2017-12-09T07:21:07.044Z,11.60
2017-12-09T07:23:34.042Z,9.65
2017-12-09T07:26:00.398Z,10.85
2017-12-09T07:28:26.744Z,10.07
2017-12-09T07:30:53.000Z,9.85
2017-12-09T07:33:19.384Z,10.35
2017-12-09T07:35:46.372Z,9.45
2017-12-09T07:38:12.635Z,11.85
2017-12-09T07:40:38.871Z,10.45
2017-12-09T07:43:05.118Z,11.50
2017-12-09T07:45:31.376Z,10.95
2017-12-09T07:47:57.621Z,10.63
2017-12-09T07:50:23.843Z,11.75
2017-12-09T07:52:50.062Z,10.68
2017-12-09T07:55:16.310Z,10.40
2017-12-09T07:57:42.537Z,11.35
2017-12-09T08:00:08.770Z,11.60
2017-12-09T08:02:35.912Z,11.38
2017-12-09T08:05:02.902Z,13.52
2017-12-09T08:07:29.859Z,13.70
2017-12-09T08:09:56.927Z,13.45
2017-12-09T08:12:23.135Z,14.30
2017-12-09T08:14:49.353Z,12.70
2017-12-09T08:17:15.581Z,15.13
2017-12-09T08:19:42.611Z,13.13
2017-12-09T08:22:08.867Z,14.10
2017-12-09T08:24:35.124Z,15.13
2017-12-09T08:27:01.362Z,14.45
2017-12-09T08:29:27.642Z,13.25
2017-12-09T08:31:53.975Z,15.90
2017-12-09T08:34:20.571Z,14.55
2017-12-09T08:36:47.889Z,14.00
2017-12-09T08:39:15.122Z,13.85
2017-12-09T08:41:41.454Z,14.75
2017-12-09T08:44:07.782Z,13.43
2017-12-09T08:46:35.068Z,14.50
2017-12-09T08:49:01.354Z,18.35
2017-12-09T08:51:27.693Z,16.00
2017-12-09T08:53:54.741Z,15.13
2017-12-09T08:56:21.129Z,17.00
2017-12-09T08:58:47.406Z,16.15
2017-12-09T09:01:13.681Z,15.13
2017-12-09T09:03:40.682Z,16.37
2017-12-09T09:06:08.653Z,16.08
2017-12-09T09:08:35.790Z,16.92
2017-12-09T09:11:01.842Z,16.35
2017-12-09T09:13:28.937Z,17.30
2017-12-09T09:15:55.657Z,17.23
2017-12-09T09:18:22.791Z,18.37
2017-12-09T09:20:49.077Z,17.60
2017-12-09T09:23:16.294Z,17.15
2017-12-09T09:25:43.126Z,15.75
2017-12-09T09:28:09.177Z,16.55
2017-12-09T09:30:35.218Z,19.23
2017-12-09T09:33:01.373Z,17.73
2017-12-09T09:35:28.356Z,19.00
2017-12-09T09:37:54.465Z,18.02
2017-12-09T09:40:21.260Z,19.42
2017-12-09T09:42:47.310Z,19.25
2017-12-09T09:45:14.207Z,18.08
2017-12-09T09:47:40.460Z,19.83
2017-12-09T09:50:06.954Z,20.15
2017-12-09T09:52:33.233Z,18.65
2017-12-09T09:54:59.837Z,18.25
2017-12-09T09:57:30.136Z,19.52
2017-12-09T09:59:56.378Z,20.90
2017-12-09T10:02:22.642Z,20.00
2017-12-09T10:04:48.973Z,21.42
2017-12-09T10:07:15.271Z,22.90
2017-12-09T10:09:41.573Z,21.52
2017-12-09T10:12:08.566Z,24.00
2017-12-09T10:14:34.838Z,22.27
2017-12-09T10:17:01.113Z,24.90
2017-12-09T10:19:27.401Z,25.15
2017-12-09T10:21:53.955Z,23.70
2017-12-09T10:24:20.885Z,24.73
2017-12-09T10:26:47.194Z,26.52
2017-12-09T10:29:13.420Z,24.73
2017-12-09T10:31:39.667Z,24.55
2017-12-09T10:34:08.978Z,25.08
2017-12-09T10:36:35.266Z,24.10
2017-12-09T10:39:01.465Z,26.02
2017-12-09T10:41:28.066Z,25.42
2017-12-09T10:43:54.289Z,25.52
2017-12-09T10:46:20.562Z,25.73
2017-12-09T10:51:17.969Z,25.45
2017-12-09T10:53:44.972Z,25.17
2017-12-09T10:56:11.213Z,23.30
2017-12-09T10:58:37.466Z,25.62
2017-12-09T11:01:04.011Z,23.77
2017-12-09T11:03:30.417Z,25.12
2017-12-09T11:05:56.671Z,23.12
2017-12-09T11:08:22.962Z,24.35
2017-12-09T11:10:49.250Z,23.62
2017-12-09T11:13:16.185Z,24.60
2017-12-09T11:15:42.589Z,33.08
2017-12-09T11:18:08.871Z,26.80
2017-12-09T11:20:35.153Z,21.77
2017-12-09T11:23:02.109Z,24.08
2017-12-09T11:25:29.089Z,25.88
2017-12-09T11:27:55.348Z,23.30
2017-12-09T11:30:21.589Z,22.73
2017-12-09T11:32:47.850Z,22.33
2017-12-09T11:35:14.868Z,24.35
2017-12-09T11:37:45.156Z,25.55
2017-12-09T11:40:11.413Z,22.05
2017-12-09T11:42:38.463Z,25.67
2017-12-09T11:45:04.731Z,26.75
2017-12-09T11:47:31.009Z,24.95
2017-12-09T11:49:57.209Z,25.67
2017-12-09T11:52:23.474Z,25.85
2017-12-09T11:54:49.750Z,24.67
2017-12-09T11:57:19.584Z,26.25
2017-12-09T11:59:46.770Z,25.95
2017-12-09T12:02:13.101Z,27.25
2017-12-09T12:04:40.111Z,27.35
2017-12-09T12:07:06.385Z,29.92
2017-12-09T12:09:32.621Z,30.30
2017-12-09T12:11:58.858Z,30.67
2017-12-09T12:14:25.141Z,30.50
2017-12-09T12:16:51.381Z,29.60
2017-12-09T12:19:18.443Z,28.27
2017-12-09T12:21:44.737Z,29.52
2017-12-09T12:24:10.998Z,28.87
2017-12-09T12:26:37.301Z,27.00
2017-12-09T12:29:03.613Z,27.35
2017-12-09T12:31:29.890Z,27.70
2017-12-09T12:33:56.139Z,27.15
2017-12-09T12:36:22.437Z,26.10
2017-12-09T12:38:48.697Z,24.85
2017-12-09T12:41:15.094Z,24.42
2017-12-09T12:43:41.378Z,25.00
2017-12-09T12:46:07.670Z,26.15
2017-12-09T12:48:33.949Z,24.27
2017-12-09T12:51:00.241Z,23.85
2017-12-09T12:53:30.787Z,25.10
2017-12-09T12:55:57.062Z,21.90
2017-12-09T12:58:23.319Z,23.25
2017-12-09T13:00:49.588Z,26.95
2017-12-09T13:03:15.936Z,23.75
2017-12-09T13:05:42.335Z,22.83
2017-12-09T13:08:08.641Z,24.65
2017-12-09T13:10:35.685Z,22.98
2017-12-09T13:13:06.427Z,21.70
2017-12-09T13:15:32.692Z,22.98
2017-12-09T13:17:58.934Z,24.15
2017-12-09T13:20:25.214Z,21.15
2017-12-09T13:22:51.454Z,23.25
2017-12-09T13:25:17.734Z,21.55
2017-12-09T13:27:43.982Z,19.00
2017-12-09T13:30:11.011Z,18.98
2017-12-09T13:32:38.024Z,19.15
2017-12-09T13:35:04.281Z,19.58
2017-12-09T13:37:31.334Z,18.83
2017-12-09T13:39:57.655Z,18.20
2017-12-09T13:42:24.660Z,20.92
2017-12-09T13:44:50.978Z,17.95
2017-12-09T13:47:17.193Z,18.40
2017-12-09T13:49:44.211Z,18.77
2017-12-09T13:52:10.479Z,18.33
2017-12-09T13:54:37.503Z,19.73
2017-12-09T13:57:03.756Z,18.45
2017-12-09T13:59:29.983Z,21.20
2017-12-09T14:01:56.206Z,22.87
2017-12-09T14:04:23.204Z,21.08
2017-12-09T14:06:49.500Z,20.88
2017-12-09T14:09:15.781Z,20.08
2017-12-09T14:11:42.043Z,21.52
2017-12-09T14:14:08.311Z,20.33
2017-12-09T14:16:34.583Z,19.62
2017-12-09T14:19:00.897Z,17.40
2017-12-09T14:21:27.173Z,19.52
2017-12-09T14:23:53.457Z,17.42
2017-12-09T14:26:19.856Z,18.12
2017-12-09T14:28:46.078Z,17.40
2017-12-09T14:31:12.370Z,19.92
2017-12-09T14:33:40.777Z,17.70
2017-12-09T14:36:07.030Z,17.12
2017-12-09T14:38:33.295Z,19.98
2017-12-09T14:40:59.575Z,21.45
2017-12-09T14:43:26.586Z,17.70
2017-12-09T14:45:53.622Z,19.08
2017-12-09T14:48:25.859Z,16.20
2017-12-09T14:50:52.082Z,16.85
2017-12-09T14:53:18.330Z,16.40
2017-12-09T14:55:44.575Z,17.23
2017-12-09T14:58:10.828Z,16.48
2017-12-09T15:00:37.087Z,17.10
2017-12-09T15:03:03.335Z,17.05
2017-12-09T15:05:32.349Z,17.15
2017-12-09T15:07:58.586Z,14.70
2017-12-09T15:10:24.812Z,15.18
2017-12-09T15:12:51.830Z,17.08
2017-12-09T15:15:18.033Z,13.95
2017-12-09T15:17:44.297Z,15.85
2017-12-09T15:20:10.518Z,16.35
2017-12-09T15:22:36.782Z,15.10
2017-12-09T15:25:06.778Z,15.98
2017-12-09T15:27:33.014Z,14.85
2017-12-09T15:30:00.030Z,14.85
2017-12-09T15:32:26.257Z,13.15
2017-12-09T15:34:52.504Z,14.38
2017-12-09T15:37:18.803Z,16.30
2017-12-09T15:39:45.086Z,16.80
2017-12-09T15:42:12.041Z,15.70
2017-12-09T15:44:38.285Z,17.95
2017-12-09T15:47:04.530Z,16.00
2017-12-09T15:49:30.800Z,14.93
2017-12-09T15:51:57.058Z,16.02
2017-12-09T15:54:23.297Z,12.95
2017-12-09T15:56:52.341Z,15.18
2017-12-09T15:59:19.405Z,17.37
2017-12-09T16:01:46.398Z,15.80
2017-12-09T16:04:12.646Z,14.98
2017-12-09T16:06:39.626Z,15.00
2017-12-09T16:09:05.873Z,13.43
2017-12-09T16:11:38.049Z,12.82
2017-12-09T16:14:04.273Z,12.90
2017-12-09T16:16:30.521Z,14.52
2017-12-09T16:18:57.482Z,13.95
2017-12-09T16:21:25.237Z,15.15
2017-12-09T16:23:51.468Z,13.00
2017-12-09T16:26:18.525Z,12.82
2017-12-09T16:28:44.759Z,14.00
2017-12-09T16:31:10.981Z,12.82
2017-12-09T16:33:37.459Z,12.90
2017-12-09T16:36:03.705Z,12.60
2017-12-09T16:38:29.964Z,12.95
2017-12-09T16:40:56.246Z,13.07
2017-12-09T16:43:22.492Z,14.55
2017-12-09T16:45:48.810Z,13.02
2017-12-09T16:48:15.114Z,14.15
2017-12-09T16:50:41.346Z,11.90
2017-12-09T16:53:07.567Z,12.23
2017-12-09T16:55:37.719Z,12.25
2017-12-09T16:58:03.933Z,13.20
2017-12-09T17:00:30.895Z,13.20
2017-12-09T17:02:57.837Z,12.13
2017-12-09T17:05:24.013Z,12.20
2017-12-09T17:07:50.247Z,12.02
2017-12-09T17:10:16.472Z,12.57
2017-12-09T17:12:48.087Z,11.20
2017-12-09T17:15:15.035Z,10.75
2017-12-09T17:17:41.274Z,9.95
2017-12-09T17:20:08.240Z,11.75
2017-12-09T17:22:34.470Z,11.32
2017-12-09T17:25:07.093Z,11.10
2017-12-09T17:27:33.334Z,11.45
2017-12-09T17:29:59.546Z,11.23
2017-12-09T17:32:25.773Z,11.32
2017-12-09T17:34:51.991Z,10.93
2017-12-09T17:37:18.932Z,10.80
2017-12-09T17:39:45.889Z,13.35
2017-12-09T17:42:15.973Z,13.07
2017-12-09T17:44:42.276Z,10.75
2017-12-09T17:47:08.465Z,12.35
2017-12-09T17:49:34.713Z,16.27
2017-12-09T17:52:01.009Z,12.10
2017-12-09T17:54:27.169Z,15.27
2017-12-09T17:56:54.245Z,12.23
2017-12-09T17:59:20.474Z,13.13
2017-12-09T18:01:50.621Z,11.98
2017-12-09T18:04:17.574Z,12.57
2017-12-09T18:06:44.549Z,11.48
2017-12-09T18:09:10.777Z,11.95
2017-12-09T18:11:37.007Z,11.05
2017-12-09T18:14:03.220Z,12.50
2017-12-09T18:16:29.466Z,12.57
2017-12-09T18:18:55.726Z,13.60
2017-12-09T18:21:26.846Z,15.05
2017-12-09T18:23:53.035Z,11.50
2017-12-09T18:26:19.264Z,12.82
2017-12-09T18:28:46.237Z,11.68
2017-12-09T18:31:12.437Z,12.63
2017-12-09T18:33:38.744Z,10.70
2017-12-09T18:36:04.983Z,11.00
2017-12-09T18:38:31.190Z,11.32
2017-12-09T18:41:01.827Z,9.15
2017-12-09T18:43:28.109Z,9.90
2017-12-09T18:45:54.308Z,9.23
2017-12-09T18:48:20.533Z,8.43
2017-12-09T18:50:46.863Z,9.13
2017-12-09T18:53:13.091Z,9.52
2017-12-09T18:55:39.282Z,9.05
2017-12-09T18:58:05.516Z,9.70
2017-12-09T19:00:31.740Z,9.95
2017-12-09T19:03:00.474Z,10.60
2017-12-09T19:05:26.745Z,10.20
2017-12-09T19:07:53.737Z,8.48
2017-12-09T19:10:20.758Z,8.20
2017-12-09T19:12:46.988Z,7.82
2017-12-09T19:15:13.225Z,10.02
2017-12-09T19:17:39.413Z,9.65
2017-12-09T19:20:05.638Z,7.95
2017-12-09T19:22:34.997Z,8.35
2017-12-09T19:25:01.945Z,8.73
2017-12-09T19:27:28.149Z,8.43
2017-12-09T19:29:54.390Z,7.62
2017-12-09T19:32:20.658Z,7.53
2017-12-09T19:34:46.970Z,5.95
2017-12-09T19:37:13.898Z,7.43
2017-12-09T19:39:40.858Z,7.32
2017-12-09T19:42:10.291Z,8.00
2017-12-09T19:44:36.506Z,6.93
2017-12-09T19:47:02.738Z,7.55
2017-12-09T19:49:28.937Z,7.50
2017-12-09T19:51:55.157Z,7.12
2017-12-09T19:54:21.353Z,7.53
2017-12-09T19:56:47.630Z,8.30
2017-12-09T19:59:13.926Z,9.15
2017-12-09T20:01:44.703Z,6.85
2017-12-09T20:04:10.930Z,7.47
2017-12-09T20:06:37.207Z,8.00
2017-12-09T20:09:03.420Z,6.90
2017-12-09T20:11:30.346Z,8.50
2017-12-09T20:13:56.564Z,8.15
2017-12-09T20:16:22.750Z,7.20
2017-12-09T20:18:49.070Z,7.95
2017-12-09T20:21:19.405Z,6.65
2017-12-09T20:23:45.642Z,9.25
2017-12-09T20:26:11.865Z,7.00
2017-12-09T20:28:38.130Z,8.82
2017-12-09T20:31:04.390Z,8.25
2017-12-09T20:33:31.465Z,10.82
2017-12-09T20:35:57.747Z,9.27
2017-12-09T20:38:28.942Z,8.95
2017-12-09T20:40:55.201Z,6.60
2017-12-09T20:43:21.551Z,7.93
2017-12-09T20:45:47.877Z,6.72
2017-12-09T20:48:14.087Z,6.50
2017-12-09T20:50:40.377Z,6.62
2017-12-09T20:53:06.601Z,7.68
2017-12-09T20:55:32.862Z,6.43
2017-12-09T20:58:02.521Z,5.65
2017-12-09T21:00:28.757Z,6.30
2017-12-09T21:02:54.969Z,6.25
2017-12-09T21:05:21.189Z,5.37
2017-12-09T21:07:47.437Z,6.35
2017-12-09T21:10:13.721Z,5.53
2017-12-09T21:12:39.931Z,5.37
2017-12-09T21:15:09.237Z,5.95
2017-12-09T21:17:35.495Z,5.35
2017-12-09T21:20:02.454Z,5.62
2017-12-09T21:22:28.715Z,7.03
2017-12-09T21:24:55.029Z,4.87
2017-12-09T21:27:21.346Z,4.87
2017-12-09T21:29:47.655Z,5.18
2017-12-09T21:32:16.829Z,5.35
2017-12-09T21:34:43.069Z,4.40
2017-12-09T21:37:10.060Z,4.43
2017-12-09T21:39:36.269Z,5.15
2017-12-09T21:42:03.266Z,6.15
2017-12-09T21:44:29.526Z,5.50
2017-12-09T21:46:55.923Z,4.95
2017-12-09T21:49:22.895Z,5.37
2017-12-09T21:51:49.133Z,5.90
2017-12-09T21:54:15.529Z,6.07
2017-12-09T21:56:41.794Z,5.30
2017-12-09T21:59:08.042Z,5.40
2017-12-09T22:01:34.409Z,5.47
2017-12-09T22:04:00.718Z,5.37
2017-12-09T22:06:27.722Z,6.15
2017-12-09T22:08:54.771Z,5.20
2017-12-09T22:11:21.082Z,5.05
2017-12-09T22:13:48.335Z,5.93
2017-12-09T22:16:14.603Z,5.93
2017-12-09T22:18:41.591Z,5.47
2017-12-09T22:21:08.609Z,5.50
2017-12-09T22:23:34.837Z,5.93
2017-12-09T22:26:01.094Z,5.50
2017-12-09T22:28:27.357Z,5.40
2017-12-09T22:30:54.472Z,6.00
2017-12-09T22:33:20.727Z,6.05
2017-12-09T22:35:47.026Z,5.90
2017-12-09T22:38:13.331Z,6.90
2017-12-09T22:40:40.334Z,6.15
2017-12-09T22:43:06.758Z,6.07
2017-12-09T22:45:35.233Z,6.30
2017-12-09T22:48:02.263Z,7.22
2017-12-09T22:50:28.483Z,6.62
2017-12-09T22:52:54.813Z,6.15
2017-12-09T22:55:21.134Z,7.25
2017-12-09T22:57:48.134Z,7.57
2017-12-09T23:00:14.374Z,6.22
2017-12-09T23:02:43.602Z,6.80
2017-12-09T23:05:09.892Z,6.47
2017-12-09T23:07:36.144Z,7.28
2017-12-09T23:10:03.115Z,6.95
2017-12-09T23:12:29.397Z,7.35
2017-12-09T23:14:55.661Z,7.50
2017-12-09T23:17:22.153Z,5.40
2017-12-09T23:19:48.505Z,6.37
2017-12-09T23:22:14.706Z,5.93
2017-12-09T23:24:41.658Z,5.70
2017-12-09T23:27:08.633Z,5.47
2017-12-09T23:29:34.865Z,6.53
2017-12-09T23:32:01.829Z,6.45
2017-12-09T23:34:28.060Z,6.78
2017-12-09T23:36:55.494Z,6.70
2017-12-09T23:39:21.738Z,6.57
2017-12-09T23:41:48.026Z,5.93
2017-12-09T23:44:14.249Z,6.32
2017-12-09T23:46:41.273Z,5.70
2017-12-09T23:49:08.233Z,5.37
2017-12-09T23:51:34.478Z,5.85
2017-12-09T23:54:00.718Z,6.30
2017-12-09T23:56:27.062Z,6.05
2017-12-09T23:58:53.362Z,6.25
